Terminal Aerodrome Forecast
Issued by NWS

Home | Current Version | Previous Version | Text Only | Print | Product List | Glossary On
Versions: 1 2 3 4 5 6 7 8 9 10 11 12
961
FTUS46 KSGX 242320
TAFPSP
TAF
KPSP 242320Z 2500/2524 VRB06KT P6SM SKC
     FM250200 33010G18KT P6SM SKC
     FM250600 VRB05KT P6SM SKC
     FM252200 31010KT P6SM SKC=

USA.gov is the U.S. government's official web portal to all federal, state and local government web resources and services.